Terminal Aerodrome Forecast
Issued by NWS Pittsburgh, PA

Current Version | Previous Version | Graphics & Text | Print | Product List | Glossary On
Versions: 1 2 3 4 5 6 7 8 9 10 11 12 13 14 15 16 17 18 19 20 21 22 23 24 25 26 27 28 29
000
FTUS41 KPBZ 300304 AAA
TAFPIT
TAF AMD
KPIT 300304Z 3003/3106 16005KT P6SM FEW060 FEW100 SCT250
     FM301800 21009KT P6SM BKN100 PROB30 3018/3022 P6SM -TSRA
      BKN050CB=

USA.gov is the U.S. government's official web portal to all federal, state and local government web resources and services.